Time;durP1;ratioP1;P1;durP2;ratioP2;P2;SDS_P1;SDS_P2;PMS_P1;PMS_P2;Temp;Humidity;BMP_temperature;BMP_pressure;BME280_temperature;BME280_humidity;BME280_pressure;Samples;Min_cycle;Max_cycle;Signal;HPM_P1;HPM_P2
2021/11/22 00:01:14;;;;;;;5.00;2.40;;;;;;;5.32;100.00;100773.47;5166321;28;20026;-79
2021/11/22 00:03:44;;;;;;;7.55;2.92;;;;;;;5.26;100.00;100772.69;5167611;28;20022;-80
2021/11/22 00:06:15;;;;;;;6.40;2.55;;;;;;;5.09;100.00;100784.97;5173976;28;20036;-79
2021/11/22 00:08:46;;;;;;;6.05;2.50;;;;;;;5.07;100.00;100782.41;5173265;28;20268;-79
2021/11/22 00:11:17;;;;;;;7.20;3.17;;;;;;;5.06;100.00;100788.47;5171369;28;20026;-79
2021/11/22 00:13:47;;;;;;;5.32;2.53;;;;;;;5.05;100.00;100789.34;5170071;28;20107;-79
2021/11/22 00:16:18;;;;;;;5.35;2.53;;;;;;;5.02;100.00;100798.84;5168228;28;20026;-79
2021/11/22 00:18:49;;;;;;;5.03;2.60;;;;;;;4.84;100.00;100797.28;5171189;28;20101;-79
2021/11/22 00:21:19;;;;;;;8.15;2.83;;;;;;;4.78;100.00;100805.13;5170285;28;20034;-79
2021/11/22 00:23:50;;;;;;;7.07;2.50;;;;;;;4.74;100.00;100811.19;5170087;28;20015;-79
2021/11/22 00:26:20;;;;;;;4.80;2.65;;;;;;;4.64;100.00;100816.47;5171182;28;20041;-79
2021/11/22 00:28:51;;;;;;;5.38;2.60;;;;;;;4.76;100.00;100814.63;5169951;28;20416;-79
2021/11/22 00:31:21;;;;;;;6.93;2.80;;;;;;;4.62;100.00;100818.22;5171332;28;20109;-79
2021/11/22 00:33:53;;;;;;;6.63;2.60;;;;;;;5.04;100.00;100825.59;5169400;28;20101;-79
2021/11/22 00:36:23;;;;;;;7.07;2.72;;;;;;;5.11;100.00;100820.34;5171588;28;20025;-79
2021/11/22 00:38:54;;;;;;;5.68;2.50;;;;;;;5.10;100.00;100821.22;5164314;28;20282;-79
2021/11/22 00:41:25;;;;;;;5.18;2.47;;;;;;;5.10;100.00;100820.34;5165951;28;20033;-79
2021/11/22 00:43:55;;;;;;;5.13;2.15;;;;;;;5.07;100.00;100826.44;5163452;28;20026;-79
2021/11/22 00:46:26;;;;;;;6.18;2.03;;;;;;;5.02;100.00;100837.69;5162305;28;20019;-79
2021/11/22 00:48:56;;;;;;;4.68;2.20;;;;;;;5.01;100.00;100844.59;5167220;28;20025;-79
2021/11/22 00:51:27;;;;;;;3.38;2.00;;;;;;;5.12;100.00;100841.94;5162435;28;20110;-79
2021/11/22 00:53:57;;;;;;;3.90;2.25;;;;;;;5.05;100.00;100842.84;5160048;28;20396;-79
2021/11/22 00:56:29;;;;;;;4.13;1.80;;;;;;;5.04;100.00;100856.66;5167469;28;20025;-79
2021/11/22 00:58:59;;;;;;;4.30;2.08;;;;;;;5.27;100.00;100862.50;5160399;28;20036;-79
2021/11/22 01:01:30;;;;;;;4.72;2.10;;;;;;;5.22;100.00;100859.09;5162267;28;20031;-79
2021/11/22 01:04:00;;;;;;;5.72;1.75;;;;;;;5.41;100.00;100866.69;5160736;28;20022;-79
2021/11/22 01:06:31;;;;;;;5.75;2.40;;;;;;;5.44;100.00;100859.72;5166444;28;20117;-79
2021/11/22 01:09:02;;;;;;;6.60;2.15;;;;;;;5.37;100.00;100867.59;5167271;28;20107;-79
2021/11/22 01:11:32;;;;;;;5.28;2.13;;;;;;;5.40;100.00;100880.50;5156096;28;20053;-79
2021/11/22 01:14:03;;;;;;;3.97;2.03;;;;;;;5.34;100.00;100885.72;5166219;28;20392;-79
2021/11/22 01:16:33;;;;;;;5.72;2.30;;;;;;;5.35;100.00;100887.44;5170829;28;20161;-79
2021/11/22 01:19:05;;;;;;;5.35;2.47;;;;;;;5.46;100.00;100889.09;5170930;28;20030;-79
2021/11/22 01:21:36;;;;;;;5.18;2.30;;;;;;;5.45;100.00;100896.88;5169974;28;20026;-79
2021/11/22 01:24:06;;;;;;;3.33;2.00;;;;;;;5.47;100.00;100895.13;5171181;28;20487;-79
2021/11/22 01:26:37;;;;;;;5.68;2.50;;;;;;;5.46;100.00;100904.63;5170826;28;20110;-79
2021/11/22 01:29:08;;;;;;;3.75;2.40;;;;;;;5.53;100.00;100902.81;5173607;28;20032;-79
2021/11/22 01:31:38;;;;;;;5.28;2.40;;;;;;;5.51;100.00;100904.56;5171627;28;20026;-79
2021/11/22 01:34:09;;;;;;;4.32;2.40;;;;;;;5.51;100.00;100910.63;5173110;28;20048;-79
2021/11/22 01:36:39;;;;;;;7.90;2.20;;;;;;;5.48;100.00;100908.06;5171502;28;20023;-79
2021/11/22 01:39:09;;;;;;;4.40;2.17;;;;;;;5.40;100.00;100914.19;5171907;28;20018;-79
2021/11/22 01:41:40;;;;;;;4.90;2.17;;;;;;;5.53;100.00;100923.56;5171603;28;20092;-79
2021/11/22 01:44:11;;;;;;;4.35;2.28;;;;;;;5.47;100.00;100919.31;5170886;28;20029;-79
2021/11/22 01:46:44;;;;;;;6.88;2.70;;;;;;;5.43;100.00;100921.94;5169556;28;20026;-80
2021/11/22 01:49:16;;;;;;;6.40;2.60;;;;;;;5.39;100.00;100915.91;5169777;28;20038;-79
2021/11/22 01:51:46;;;;;;;5.32;2.65;;;;;;;5.50;100.00;100918.41;5169750;28;20034;-79
2021/11/22 01:54:17;;;;;;;5.82;2.50;;;;;;;5.48;100.00;100935.72;5165241;28;20388;-79
2021/11/22 01:56:47;;;;;;;5.75;2.80;;;;;;;5.58;100.00;100933.00;5167315;28;20311;-79
2021/11/22 01:59:18;;;;;;;5.25;2.50;;;;;;;5.63;100.00;100945.94;5171601;28;20070;-79
2021/11/22 02:01:48;;;;;;;4.93;2.25;;;;;;;5.56;100.00;100946.88;5171337;28;20087;-79
2021/11/22 02:04:19;;;;;;;4.68;2.38;;;;;;;5.70;100.00;100951.03;5171327;28;20114;-79
2021/11/22 02:06:49;;;;;;;6.38;2.40;;;;;;;5.63;100.00;100946.81;5171546;28;20018;-79
2021/11/22 02:09:19;;;;;;;4.00;2.25;;;;;;;5.56;100.00;100950.31;5171958;28;20030;-79
2021/11/22 02:11:50;;;;;;;6.78;2.55;;;;;;;5.55;100.00;100942.56;5170985;28;20100;-79
2021/11/22 02:14:20;;;;;;;4.55;2.08;;;;;;;5.49;100.00;100948.66;5172062;28;20048;-79
2021/11/22 02:16:51;;;;;;;5.05;2.25;;;;;;;5.56;100.00;100949.47;5168272;28;20048;-79
2021/11/22 02:19:21;;;;;;;3.67;2.05;;;;;;;5.44;100.00;100952.16;5168967;28;20138;-79
2021/11/22 02:21:52;;;;;;;4.15;2.30;;;;;;;5.46;100.00;100961.66;5169113;28;20018;-79
2021/11/22 02:24:23;;;;;;;3.25;2.20;;;;;;;5.49;100.00;100964.22;5169362;28;20033;-79
2021/11/22 02:26:55;;;;;;;3.15;2.08;;;;;;;5.50;100.00;100973.72;5172646;28;20399;-79
2021/11/22 02:29:26;;;;;;;4.88;2.08;;;;;;;5.40;100.00;100966.03;5169356;28;20036;-79
2021/11/22 02:31:56;;;;;;;4.05;2.00;;;;;;;5.49;100.00;100979.75;5172412;28;20383;-79
2021/11/22 02:34:27;;;;;;;3.97;2.00;;;;;;;5.39;100.00;100985.03;5169425;28;20072;-79
2021/11/22 02:36:57;;;;;;;3.88;2.08;;;;;;;5.46;100.00;100991.88;5172251;28;20033;-79
2021/11/22 02:39:28;;;;;;;6.80;2.30;;;;;;;5.47;100.00;100994.47;5168895;28;20121;-79
2021/11/22 02:41:58;;;;;;;3.05;1.85;;;;;;;5.33;100.00;100990.25;5173328;28;20087;-80
2021/11/22 02:44:29;;;;;;;3.30;2.08;;;;;;;5.45;100.00;100995.34;5168921;28;20496;-79
2021/11/22 02:46:59;;;;;;;4.90;2.00;;;;;;;5.28;100.00;100998.94;5168785;28;20030;-79
2021/11/22 02:49:29;;;;;;;4.20;2.20;;;;;;;5.40;100.00;101008.34;5169045;28;20353;-79
2021/11/22 02:52:00;;;;;;;4.07;1.85;;;;;;;5.34;100.00;101011.84;5168104;28;20117;-79
2021/11/22 02:54:30;;;;;;;3.10;2.00;;;;;;;5.33;100.00;101017.91;5168964;28;20068;-79
2021/11/22 02:57:00;;;;;;;4.60;1.88;;;;;;;5.27;100.00;101018.81;5165092;28;20379;-79
2021/11/22 02:59:31;;;;;;;4.00;2.20;;;;;;;5.30;100.00;101025.72;5174726;28;20083;-80
2021/11/22 03:02:01;;;;;;;4.68;2.00;;;;;;;5.36;100.00;101028.25;5164227;28;20026;-80
2021/11/22 03:04:34;;;;;;;6.22;2.25;;;;;;;5.28;100.00;101036.06;5167016;28;20034;-80
2021/11/22 03:07:05;;;;;;;3.45;1.95;;;;;;;5.35;100.00;101035.16;5172487;28;20026;-80
2021/11/22 03:09:36;;;;;;;4.15;2.25;;;;;;;5.23;100.00;101042.16;5174982;28;20029;-79
2021/11/22 03:12:10;;;;;;;3.95;2.05;;;;;;;5.17;100.00;101047.38;5172689;28;20022;-80
2021/11/22 03:14:41;;;;;;;4.28;2.05;;;;;;;5.20;100.00;101040.47;5174814;28;20150;-80
2021/11/22 03:17:12;;;;;;;4.90;1.98;;;;;;;5.27;100.00;101052.50;5170596;28;20034;-80
2021/11/22 03:19:42;;;;;;;3.95;2.10;;;;;;;5.39;100.00;101055.00;5172315;28;20122;-79
2021/11/22 03:22:12;;;;;;;3.40;1.98;;;;;;;5.27;100.00;101060.28;5174663;28;20030;-80
2021/11/22 03:24:43;;;;;;;5.05;2.13;;;;;;;5.30;100.00;101065.44;5174495;28;20340;-80
2021/11/22 03:27:13;;;;;;;4.05;2.20;;;;;;;5.35;100.00;101066.25;5175535;28;20095;-80
2021/11/22 03:29:44;;;;;;;4.65;2.45;;;;;;;5.52;100.00;101074.75;5166236;28;20026;-79
2021/11/22 03:32:14;;;;;;;5.68;2.65;;;;;;;5.33;100.00;101080.94;5171879;28;20224;-80
2021/11/22 03:34:44;;;;;;;4.25;2.40;;;;;;;5.18;100.00;101086.22;5171609;28;20041;-80
2021/11/22 03:37:15;;;;;;;4.95;2.55;;;;;;;5.39;100.00;101075.75;5173567;28;20117;-80
2021/11/22 03:39:49;;;;;;;5.70;2.13;;;;;;;5.21;100.00;101090.53;5173223;28;20030;-80
2021/11/22 03:42:22;;;;;;;4.50;2.28;;;;;;;5.18;100.00;101085.38;5173422;28;20502;-80
2021/11/22 03:44:53;;;;;;;4.72;2.45;;;;;;;5.38;100.00;101090.41;5174844;28;20021;-80
2021/11/22 03:47:23;;;;;;;3.65;2.50;;;;;;;5.33;100.00;101091.31;5172680;28;20028;-79
2021/11/22 03:49:53;;;;;;;4.80;2.45;;;;;;;5.32;100.00;101094.78;5177375;28;20080;-80
2021/11/22 03:52:24;;;;;;;4.28;2.50;;;;;;;5.34;100.00;101102.56;5176175;28;20535;-80
2021/11/22 03:54:54;;;;;;;4.80;2.13;;;;;;;5.28;100.00;101097.38;5178505;28;20041;-80
2021/11/22 03:57:27;;;;;;;4.90;2.30;;;;;;;5.18;100.00;101106.94;5176445;28;20026;-80
2021/11/22 03:59:57;;;;;;;4.15;2.42;;;;;;;5.12;100.00;101114.75;5178945;28;20032;-80
2021/11/22 04:02:28;;;;;;;5.93;2.60;;;;;;;5.07;100.00;101116.53;5174253;28;20022;-80
2021/11/22 04:04:58;;;;;;;5.63;2.55;;;;;;;5.24;100.00;101116.41;5176410;28;20092;-80
2021/11/22 04:07:29;;;;;;;5.72;2.63;;;;;;;5.21;100.00;101125.09;5176098;28;20026;-80
2021/11/22 04:10:00;;;;;;;5.47;2.60;;;;;;;5.21;100.00;101129.41;5179309;28;20117;-80
2021/11/22 04:12:30;;;;;;;4.18;2.50;;;;;;;5.30;100.00;101139.72;5176046;28;20392;-80
2021/11/22 04:15:01;;;;;;;4.95;2.60;;;;;;;5.33;100.00;101142.28;5170917;28;20356;-79
2021/11/22 04:17:32;;;;;;;4.53;2.35;;;;;;;5.32;100.00;101148.34;5174838;28;20085;-80
2021/11/22 04:20:04;;;;;;;5.57;2.88;;;;;;;5.16;100.00;101147.53;5177720;28;20057;-80
2021/11/22 04:22:35;;;;;;;9.00;2.83;;;;;;;5.18;100.00;101161.34;5175668;28;20484;-80
2021/11/22 04:25:07;;;;;;;4.25;2.45;;;;;;;5.15;100.00;101169.13;5178169;28;20026;-79
2021/11/22 04:27:37;;;;;;;4.18;2.50;;;;;;;5.06;100.00;101164.00;5176820;28;20144;-80
2021/11/22 04:30:10;;;;;;;4.45;2.72;;;;;;;5.04;100.00;101163.16;5177424;28;20140;-80
2021/11/22 04:32:41;;;;;;;5.38;2.95;;;;;;;5.11;100.00;101170.03;5174826;28;20029;-80
2021/11/22 04:35:15;;;;;;;6.35;3.30;;;;;;;5.08;100.00;101176.94;5174919;28;20376;-80
2021/11/22 04:37:45;;;;;;;6.43;3.13;;;;;;;5.16;100.00;101176.03;5176562;28;20076;-80
2021/11/22 04:40:17;;;;;;;7.97;3.05;;;;;;;5.07;100.00;101178.69;5174403;28;20555;-80
2021/11/22 04:42:49;;;;;;;8.32;3.65;;;;;;;5.03;100.00;101182.16;5176056;28;20057;-79
2021/11/22 04:45:22;;;;;;;6.90;3.47;;;;;;;5.19;100.00;101182.94;5175147;28;20500;-80
2021/11/22 04:47:53;;;;;;;6.10;3.60;;;;;;;5.14;100.00;101180.38;5172751;28;20033;-80
2021/11/22 04:50:23;;;;;;;5.07;3.33;;;;;;;5.08;100.00;101195.94;5174567;28;20030;-80
2021/11/22 04:52:55;;;;;;;6.60;3.53;;;;;;;5.15;100.00;101189.88;5175270;28;20021;-79
2021/11/22 04:55:26;;;;;;;6.50;3.55;;;;;;;5.05;100.00;101202.84;5173279;28;20029;-80
2021/11/22 04:57:57;;;;;;;6.45;2.90;;;;;;;5.13;100.00;101206.28;5173765;28;20026;-80
2021/11/22 05:00:28;;;;;;;4.72;3.10;;;;;;;5.21;100.00;101205.41;5174753;28;20480;-80
2021/11/22 05:02:58;;;;;;;8.30;3.10;;;;;;;5.17;100.00;101211.44;5168521;28;20036;-80
2021/11/22 05:05:28;;;;;;;6.45;3.17;;;;;;;5.14;100.00;101214.03;5172969;28;20033;-80
2021/11/22 05:08:05;;;;;;;5.47;3.25;;;;;;;5.12;100.00;101220.97;5176813;28;20041;-80
2021/11/22 05:10:38;;;;;;;4.25;3.10;;;;;;;5.21;100.00;101215.78;5170145;28;20101;-80
2021/11/22 05:13:12;;;;;;;5.63;3.08;;;;;;;5.26;100.00;101228.69;5176089;28;20312;-80
2021/11/22 05:15:43;;;;;;;5.22;3.00;;;;;;;5.22;100.00;101227.84;5174798;28;20096;-80
2021/11/22 05:18:13;;;;;;;4.82;2.80;;;;;;;5.35;100.00;101226.91;5172972;28;20022;-80
2021/11/22 05:20:44;;;;;;;6.05;2.72;;;;;;;5.31;100.00;101229.53;5174148;28;20387;-80
2021/11/22 05:23:16;;;;;;;5.30;2.78;;;;;;;5.19;100.00;101237.34;5175351;28;20033;-80
2021/11/22 05:25:46;;;;;;;4.07;2.83;;;;;;;5.19;100.00;101233.00;5175488;28;20061;-80
2021/11/22 05:28:17;;;;;;;4.75;2.90;;;;;;;5.16;100.00;101235.63;5175030;28;20045;-80
2021/11/22 05:30:48;;;;;;;6.35;3.20;;;;;;;5.21;100.00;101248.56;5175102;28;20018;-80
2021/11/22 05:33:18;;;;;;;4.82;2.75;;;;;;;5.21;100.00;101252.03;5172128;28;20514;-80
2021/11/22 05:35:48;;;;;;;4.72;2.90;;;;;;;5.16;100.00;101260.69;5174017;28;20018;-80
2021/11/22 05:38:19;;;;;;;4.72;2.88;;;;;;;5.12;100.00;101256.38;5175725;28;20034;-80
2021/11/22 05:40:49;;;;;;;4.68;2.63;;;;;;;5.11;100.00;101265.88;5161668;23;1107149;-80
2021/11/22 05:43:20;;;;;;;6.15;2.70;;;;;;;4.91;100.00;101270.25;5195185;28;20170;-81
2021/11/22 05:45:50;;;;;;;6.20;2.70;;;;;;;4.96;100.00;101272.81;5197161;28;20441;-81
2021/11/22 05:48:21;;;;;;;5.13;2.90;;;;;;;4.99;100.00;101273.66;5194943;28;20088;-81
2021/11/22 05:50:53;;;;;;;3.92;2.47;;;;;;;4.90;100.00;101284.06;5198363;28;20069;-82
2021/11/22 05:53:24;;;;;;;4.60;2.70;;;;;;;4.85;100.00;101288.38;5196587;28;20104;-81
2021/11/22 05:55:55;;;;;;;4.90;2.83;;;;;;;4.80;100.00;101297.84;5198113;28;20056;-81
2021/11/22 05:58:25;;;;;;;6.28;2.75;;;;;;;4.81;100.00;101299.59;5196293;28;20018;-81
2021/11/22 06:00:56;;;;;;;3.40;2.47;;;;;;;4.92;100.00;101295.25;5198827;28;20032;-82
2021/11/22 06:03:30;;;;;;;4.18;2.42;;;;;;;4.93;100.00;101302.16;5191130;28;20475;-81
2021/11/22 06:06:01;;;;;;;4.35;2.42;;;;;;;4.58;100.00;101306.50;5189935;28;20030;-80
2021/11/22 06:08:32;;;;;;;5.40;2.63;;;;;;;4.73;100.00;101306.50;5198319;28;20055;-80
2021/11/22 06:11:03;;;;;;;3.83;2.40;;;;;;;4.83;100.00;101308.22;5193773;28;20021;-81
2021/11/22 06:13:33;;;;;;;5.13;2.78;;;;;;;4.73;100.00;101309.09;5198596;28;20026;-81
2021/11/22 06:16:04;;;;;;;5.32;3.00;;;;;;;4.63;100.00;101322.88;5193125;28;20033;-82
2021/11/22 06:18:34;;;;;;;6.30;2.55;;;;;;;4.45;100.00;101327.22;5191364;28;20483;-82
2021/11/22 06:21:05;;;;;;;5.00;2.65;;;;;;;4.52;100.00;101324.63;5199044;28;20033;-81
2021/11/22 06:23:35;;;;;;;5.55;2.53;;;;;;;4.54;100.00;101327.19;5193724;28;20509;-82
2021/11/22 06:26:05;;;;;;;5.50;2.67;;;;;;;4.57;100.00;101338.44;5197468;28;20075;-82
2021/11/22 06:28:36;;;;;;;3.97;2.67;;;;;;;4.57;100.00;101335.84;5192365;28;20293;-82
2021/11/22 06:31:06;;;;;;;5.68;2.90;;;;;;;4.54;100.00;101347.91;5195689;28;20022;-82
2021/11/22 06:33:37;;;;;;;4.75;2.53;;;;;;;4.52;100.00;101342.75;5189910;28;20022;-82
2021/11/22 06:36:07;;;;;;;4.57;2.70;;;;;;;4.60;100.00;101353.09;5188567;28;20022;-82
2021/11/22 06:38:38;;;;;;;4.15;2.78;;;;;;;4.42;100.00;101353.06;5195654;28;20395;-82
2021/11/22 06:41:08;;;;;;;6.25;2.95;;;;;;;4.42;100.00;101360.81;5195830;28;20045;-82
2021/11/22 06:43:38;;;;;;;3.72;2.38;;;;;;;4.38;100.00;101364.28;5197391;28;20022;-82
2021/11/22 06:46:09;;;;;;;6.47;2.53;;;;;;;4.29;100.00;101369.44;5194277;28;20018;-82
2021/11/22 06:48:39;;;;;;;4.97;2.83;;;;;;;4.28;100.00;101375.47;5192181;28;20025;-82
2021/11/22 06:51:09;;;;;;;5.63;2.33;;;;;;;4.33;100.00;101384.94;5197861;28;20025;-82
2021/11/22 06:53:40;;;;;;;4.80;2.63;;;;;;;4.26;100.00;101396.16;5195298;28;20526;-82
2021/11/22 06:56:10;;;;;;;4.65;2.30;;;;;;;4.19;100.00;101399.59;5196344;28;20184;-82
2021/11/22 06:58:41;;;;;;;6.05;2.65;;;;;;;4.09;100.00;101399.56;5194903;28;20026;-82
2021/11/22 07:01:11;;;;;;;4.15;2.30;;;;;;;4.12;100.00;101413.34;5192687;28;20056;-82
2021/11/22 07:03:41;;;;;;;4.00;2.47;;;;;;;4.14;100.00;101418.53;5192892;28;20475;-82
2021/11/22 07:06:12;;;;;;;3.65;2.50;;;;;;;4.19;100.00;101429.75;5195113;28;20044;-82
2021/11/22 07:08:42;;;;;;;4.30;2.05;;;;;;;4.17;100.00;101423.72;5190689;28;20033;-82
2021/11/22 07:11:13;;;;;;;3.47;2.30;;;;;;;4.31;100.00;101430.66;5195924;28;20032;-82
2021/11/22 07:13:43;;;;;;;4.00;2.45;;;;;;;4.32;100.00;101434.97;5196718;28;20022;-81
2021/11/22 07:16:16;;;;;;;5.43;2.50;;;;;;;4.17;100.00;101444.41;5196136;28;20026;-81
2021/11/22 07:18:46;;;;;;;5.13;2.67;;;;;;;4.32;100.00;101457.41;5194751;28;20022;-81
2021/11/22 07:21:17;;;;;;;5.13;2.58;;;;;;;4.40;100.00;101454.00;5196657;28;20087;-81
2021/11/22 07:23:47;;;;;;;3.60;2.33;;;;;;;4.44;100.00;101460.91;5202383;28;20072;-81
2021/11/22 07:26:18;;;;;;;5.25;2.25;;;;;;;4.17;100.00;101460.81;5201983;28;20088;-81
2021/11/22 07:28:48;;;;;;;3.47;2.15;;;;;;;4.28;100.00;101468.59;5201498;28;20025;-81
2021/11/22 07:31:19;;;;;;;3.60;2.30;;;;;;;4.24;100.00;101472.91;5200531;28;20064;-81
2021/11/22 07:33:49;;;;;;;4.53;2.45;;;;;;;4.26;100.00;101473.75;5197032;28;20041;-81
2021/11/22 07:36:19;;;;;;;4.78;2.50;;;;;;;4.22;100.00;101476.31;5200429;28;20409;-81
2021/11/22 07:38:50;;;;;;;5.85;2.38;;;;;;;4.26;100.00;101480.69;5200805;28;20038;-81
2021/11/22 07:41:20;;;;;;;4.63;2.28;;;;;;;4.16;100.00;101484.91;5199985;28;20216;-81
2021/11/22 07:43:50;;;;;;;4.13;2.33;;;;;;;4.14;100.00;101490.97;5201898;28;20044;-81
2021/11/22 07:46:21;;;;;;;3.60;1.98;;;;;;;4.07;100.00;101502.09;5198554;28;20029;-81
2021/11/22 07:48:53;;;;;;;4.93;2.22;;;;;;;4.06;100.00;101513.31;5197506;28;20032;-81
2021/11/22 07:51:24;;;;;;;4.03;2.00;;;;;;;4.01;100.00;101510.72;5199467;28;20125;-81
2021/11/22 07:53:54;;;;;;;4.40;2.00;;;;;;;4.25;100.00;101512.53;5200403;28;20026;-81
2021/11/22 07:56:25;;;;;;;4.20;2.00;;;;;;;4.41;100.00;101523.00;5199103;28;20121;-81
2021/11/22 07:58:56;;;;;;;5.22;2.20;;;;;;;4.87;100.00;101517.13;5202556;28;20057;-81
2021/11/22 08:01:26;;;;;;;3.65;1.90;;;;;;;5.15;100.00;101511.09;5199008;28;20052;-81
2021/11/22 08:03:56;;;;;;;4.85;1.80;;;;;;;6.16;100.00;101519.72;5207477;28;20017;-81
2021/11/22 08:06:27;;;;;;;3.42;1.73;;;;;;;7.34;96.32;101514.75;5208709;28;20248;-81
2021/11/22 08:08:58;;;;;;;2.22;1.33;;;;;;;8.34;89.14;101509.47;5214623;28;20052;-81
2021/11/22 08:11:31;;;;;;;4.95;1.23;;;;;;;8.86;84.83;101508.81;5213245;28;20267;-81
2021/11/22 08:14:02;;;;;;;2.53;1.20;;;;;;;9.59;79.94;101504.19;5207275;28;20022;-81
2021/11/22 08:16:33;;;;;;;2.05;1.13;;;;;;;9.57;82.27;101508.56;5211112;28;20037;-82
2021/11/22 08:19:03;;;;;;;2.50;1.10;;;;;;;9.80;79.98;101514.28;5208553;28;20430;-82
2021/11/22 08:21:34;;;;;;;1.88;1.00;;;;;;;9.54;78.11;101521.69;5194878;28;20025;-82
2021/11/22 08:24:05;;;;;;;2.63;1.10;;;;;;;9.41;81.72;101525.38;5202437;28;20487;-82
2021/11/22 08:26:35;;;;;;;2.17;1.13;;;;;;;9.98;75.41;101517.41;5201072;28;20028;-82
2021/11/22 08:29:06;;;;;;;4.80;1.00;;;;;;;10.04;76.12;101524.31;5202084;28;20029;-82
2021/11/22 08:31:36;;;;;;;2.42;0.90;;;;;;;7.96;83.53;101541.13;5199458;28;20033;-82
2021/11/22 08:34:07;;;;;;;2.30;1.10;;;;;;;7.66;86.94;101545.75;5194668;28;20029;-82
2021/11/22 08:36:37;;;;;;;5.40;1.20;;;;;;;7.30;88.50;101559.88;5201138;28;20033;-82
2021/11/22 08:39:08;;;;;;;3.83;1.10;;;;;;;6.83;91.60;101557.53;5201712;28;20191;-81
2021/11/22 08:41:38;;;;;;;4.15;1.25;;;;;;;6.35;93.33;101557.72;5199033;28;20101;-81
2021/11/22 08:44:08;;;;;;;2.60;1.17;;;;;;;5.95;97.17;101567.31;5200868;28;20029;-81
2021/11/22 08:46:40;;;;;;;2.58;1.15;;;;;;;5.89;98.06;101571.66;5197550;28;20025;-81
2021/11/22 08:49:10;;;;;;;1.45;1.08;;;;;;;5.58;99.76;101575.09;5194206;28;20076;-81
2021/11/22 08:51:41;;;;;;;2.63;1.15;;;;;;;5.76;99.50;101578.53;5200734;28;20029;-81
2021/11/22 08:54:12;;;;;;;2.92;1.30;;;;;;;5.83;99.57;101576.84;5200841;28;20026;-81
2021/11/22 08:56:43;;;;;;;3.83;1.13;;;;;;;5.75;100.00;101575.97;5200063;28;20064;-82
2021/11/22 08:59:14;;;;;;;3.70;1.40;;;;;;;5.82;99.96;101585.47;5198779;28;20026;-81
2021/11/22 09:01:45;;;;;;;2.95;1.20;;;;;;;5.88;99.68;101582.91;5195087;28;20056;-82
2021/11/22 09:04:16;;;;;;;1.73;1.00;;;;;;;6.00;98.28;101588.06;5193808;28;20030;-81
2021/11/22 09:06:46;;;;;;;1.73;1.00;;;;;;;5.86;100.00;101582.91;5200198;28;20479;-81
2021/11/22 09:09:18;;;;;;;2.45;1.30;;;;;;;6.09;98.75;101585.47;5197095;28;20487;-81
2021/11/22 09:11:49;;;;;;;2.45;1.08;;;;;;;6.18;98.66;101585.44;5186275;28;20208;-81
2021/11/22 09:14:20;;;;;;;1.67;1.20;;;;;;;5.83;99.52;101592.41;5202881;28;20532;-81
2021/11/22 09:16:50;;;;;;;3.03;1.20;;;;;;;6.04;99.78;101603.63;5191336;28;20053;-81
2021/11/22 09:19:20;;;;;;;2.17;1.30;;;;;;;6.09;99.92;101608.81;5195164;28;20034;-81
2021/11/22 09:21:51;;;;;;;1.38;0.90;;;;;;;5.93;99.66;101607.13;5193432;28;20039;-81
2021/11/22 09:24:21;;;;;;;2.40;1.00;;;;;;;6.02;99.85;101614.88;5191102;28;20030;-81
2021/11/22 09:26:52;;;;;;;5.22;1.17;;;;;;;6.33;98.22;101612.25;5188522;28;20490;-81
2021/11/22 09:29:22;;;;;;;3.20;1.10;;;;;;;5.96;98.26;101615.75;5187110;28;20026;-82
2021/11/22 09:31:52;;;;;;;2.45;1.00;;;;;;;6.06;98.28;101614.03;5191127;28;20029;-81
2021/11/22 09:34:23;;;;;;;2.28;0.85;;;;;;;6.01;99.13;101613.16;5189893;28;20026;-81
2021/11/22 09:36:53;;;;;;;2.13;0.90;;;;;;;6.01;98.04;101620.94;5189834;28;20376;-82
2021/11/22 09:39:24;;;;;;;2.65;0.93;;;;;;;5.84;98.05;101614.88;5187258;28;20033;-82
2021/11/22 09:41:54;;;;;;;1.30;0.80;;;;;;;5.94;98.41;101616.63;5189865;28;20029;-82
2021/11/22 09:44:25;;;;;;;1.55;0.80;;;;;;;5.98;96.36;101615.75;5187398;28;20143;-81
2021/11/22 09:46:55;;;;;;;1.48;0.73;;;;;;;5.70;97.19;101617.44;5191026;28;20089;-82
2021/11/22 09:49:26;;;;;;;2.28;0.80;;;;;;;5.89;97.83;101623.53;5190121;28;20054;-82
2021/11/22 09:51:57;;;;;;;1.42;0.63;;;;;;;5.77;96.94;101623.50;5185833;28;20120;-81
2021/11/22 09:54:27;;;;;;;2.45;0.85;;;;;;;5.77;96.81;101623.50;5189221;28;20028;-82
2021/11/22 09:56:58;;;;;;;1.95;0.60;;;;;;;5.96;97.81;101626.16;5188862;28;20376;-82
2021/11/22 09:59:28;;;;;;;2.10;0.77;;;;;;;6.10;95.78;101632.16;5186803;28;20030;-81
2021/11/22 10:01:59;;;;;;;1.20;0.65;;;;;;;5.89;96.37;101628.75;5189601;28;20033;-81
2021/11/22 10:04:31;;;;;;;3.33;0.63;;;;;;;5.85;97.30;101627.88;5190396;28;20029;-82
2021/11/22 10:07:05;;;;;;;1.25;0.60;;;;;;;5.83;97.92;101629.59;5185570;28;20032;-82
2021/11/22 10:09:44;;;;;;;2.75;0.80;;;;;;;5.93;98.71;101636.50;5186880;28;20030;-82
2021/11/22 10:12:22;;;;;;;1.70;0.80;;;;;;;6.04;97.49;101639.09;5187283;28;20022;-82
2021/11/22 10:15:02;;;;;;;1.77;0.65;;;;;;;6.17;95.31;101646.00;5189686;28;20033;-81
2021/11/22 10:17:39;;;;;;;2.17;0.60;;;;;;;5.90;93.28;101641.69;5187625;28;20369;-82
2021/11/22 10:20:12;;;;;;;1.02;0.50;;;;;;;6.10;94.16;101639.94;5189286;28;20481;-82
2021/11/22 10:23:04;;;;;;;1.38;0.50;;;;;;;5.91;93.22;101642.56;5187732;28;20041;-82
2021/11/22 10:25:38;;;;;;;1.30;0.50;;;;;;;6.06;93.63;101647.75;5187249;28;20026;-82
2021/11/22 10:28:17;;;;;;;1.20;0.47;;;;;;;6.09;91.02;101647.75;5192890;28;20026;-82
2021/11/22 10:30:57;;;;;;;4.35;0.45;;;;;;;6.08;90.59;101651.22;5188173;28;20057;-82
2021/11/22 10:33:31;;;;;;;1.30;0.50;;;;;;;6.21;90.03;101642.53;5189684;28;20108;-81
2021/11/22 10:36:08;;;;;;;1.27;0.40;;;;;;;6.08;90.90;101651.22;5192654;28;20022;-82
2021/11/22 10:38:42;;;;;;;1.15;0.35;;;;;;;6.08;90.91;101644.28;5186547;28;20112;-82
2021/11/22 10:41:28;;;;;;;0.80;0.47;;;;;;;6.03;91.51;101637.34;5186843;28;20033;-82
2021/11/22 10:44:05;;;;;;;1.02;0.32;;;;;;;6.10;91.26;101644.28;5188448;28;20044;-82
2021/11/22 10:46:42;;;;;;;1.80;0.40;;;;;;;6.18;91.96;101647.72;5190292;28;20040;-82
2021/11/22 10:49:17;;;;;;;0.52;0.28;;;;;;;6.36;91.46;101646.00;5188338;28;20026;-82
2021/11/22 10:51:50;;;;;;;0.75;0.40;;;;;;;6.24;89.69;101650.34;5200634;28;20022;-82
2021/11/22 10:54:20;;;;;;;2.17;0.60;;;;;;;6.08;91.41;101652.06;5187157;28;20065;-82
2021/11/22 10:56:52;;;;;;;2.22;0.50;;;;;;;6.16;90.49;101652.94;5186993;28;20040;-82
2021/11/22 10:59:23;;;;;;;1.35;0.40;;;;;;;6.04;90.01;101659.84;5199071;28;20457;-82
2021/11/22 11:01:55;;;;;;;2.03;0.63;;;;;;;6.17;90.47;101657.25;5187875;28;20022;-82
2021/11/22 11:04:28;;;;;;;1.08;0.60;;;;;;;6.23;90.30;101661.59;5188776;28;20021;-82
2021/11/22 11:07:09;;;;;;;2.05;0.50;;;;;;;6.26;88.97;101665.03;5198200;28;20037;-82
2021/11/22 11:09:52;;;;;;;0.60;0.30;;;;;;;6.26;88.66;101664.19;5191515;28;20026;-82
2021/11/22 11:12:27;;;;;;;1.92;0.45;;;;;;;6.18;89.35;101665.91;5192087;28;20040;-81
2021/11/22 11:14:58;;;;;;;1.42;0.60;;;;;;;6.37;89.23;101665.00;5191299;28;20087;-82
2021/11/22 11:17:35;;;;;;;1.15;0.50;;;;;;;6.36;89.09;101668.47;5193378;28;20076;-82
2021/11/22 11:20:09;;;;;;;3.42;0.45;;;;;;;6.37;87.03;101671.09;5190918;28;20503;-82
2021/11/22 11:22:40;;;;;;;0.95;0.28;;;;;;;6.26;87.28;101667.63;5197092;28;20115;-82
2021/11/22 11:25:12;;;;;;;0.57;0.40;;;;;;;6.35;88.50;101674.53;5195634;28;20021;-82
2021/11/22 11:27:45;;;;;;;7.40;3.03;;;;;;;6.24;89.25;101678.91;5197417;28;20075;-81
2021/11/22 11:30:20;;;;;;;3.47;1.17;;;;;;;6.49;90.77;101675.38;5191836;28;20026;-82
2021/11/22 11:32:52;;;;;;;4.38;0.90;;;;;;;6.22;91.10;101667.66;5192068;28;20037;-82
2021/11/22 11:35:25;;;;;;;3.10;0.90;;;;;;;6.28;90.38;101671.06;5189890;28;20026;-81
2021/11/22 11:38:16;;;;;;;1.08;0.50;;;;;;;6.19;89.53;101671.09;5200248;28;20030;-81
2021/11/22 11:41:12;;;;;;;1.90;0.50;;;;;;;6.15;89.49;101674.56;5195872;28;20030;-81
2021/11/22 11:43:55;;;;;;;2.33;0.50;;;;;;;6.20;89.24;101672.84;5199103;28;20085;-81
2021/11/22 11:46:38;;;;;;;0.77;0.30;;;;;;;6.23;88.22;101672.81;5199338;28;20036;-83